sensor_id;sensor_type;location;lat;lon;timestamp;temperature;humidity
8664;DHT22;4369;47.842;13.096;2023-04-25T00:00:17;8.50;99.90
8664;DHT22;4369;47.842;13.096;2023-04-25T00:02:46;8.50;99.90
8664;DHT22;4369;47.842;13.096;2023-04-25T00:05:13;8.50;99.90
8664;DHT22;4369;47.842;13.096;2023-04-25T00:07:40;8.50;99.90
8664;DHT22;4369;47.842;13.096;2023-04-25T00:10:09;8.50;99.90
8664;DHT22;4369;47.842;13.096;2023-04-25T00:12:36;8.50;99.90
8664;DHT22;4369;47.842;13.096;2023-04-25T00:15:05;8.50;99.90
8664;DHT22;4369;47.842;13.096;2023-04-25T00:17:32;8.40;99.90
8664;DHT22;4369;47.842;13.096;2023-04-25T00:20:02;8.40;99.90
8664;DHT22;4369;47.842;13.096;2023-04-25T00:22:34;8.50;99.90
8664;DHT22;4369;47.842;13.096;2023-04-25T00:25:03;8.40;99.90
8664;DHT22;4369;47.842;13.096;2023-04-25T00:27:30;8.40;99.90
8664;DHT22;4369;47.842;13.096;2023-04-25T00:29:56;8.40;99.90
8664;DHT22;4369;47.842;13.096;2023-04-25T00:32:23;8.50;99.90
8664;DHT22;4369;47.842;13.096;2023-04-25T00:34:50;8.50;99.90
8664;DHT22;4369;47.842;13.096;2023-04-25T00:37:18;8.50;99.90
8664;DHT22;4369;47.842;13.096;2023-04-25T00:39:45;8.50;99.90
8664;DHT22;4369;47.842;13.096;2023-04-25T00:42:12;8.30;99.90
8664;DHT22;4369;47.842;13.096;2023-04-25T00:44:39;8.20;99.90
8664;DHT22;4369;47.842;13.096;2023-04-25T00:47:07;8.20;99.90
8664;DHT22;4369;47.842;13.096;2023-04-25T00:49:34;8.20;99.90
8664;DHT22;4369;47.842;13.096;2023-04-25T00:52:01;8.10;99.90
8664;DHT22;4369;47.842;13.096;2023-04-25T00:54:29;8.10;99.90
8664;DHT22;4369;47.842;13.096;2023-04-25T00:56:57;8.10;99.90
8664;DHT22;4369;47.842;13.096;2023-04-25T00:59:23;8.10;99.90
8664;DHT22;4369;47.842;13.096;2023-04-25T01:01:53;8.10;99.90
8664;DHT22;4369;47.842;13.096;2023-04-25T01:04:20;8.10;99.90
8664;DHT22;4369;47.842;13.096;2023-04-25T01:06:48;8.10;99.90
8664;DHT22;4369;47.842;13.096;2023-04-25T01:09:15;8.10;99.90
8664;DHT22;4369;47.842;13.096;2023-04-25T01:11:43;8.20;99.90
8664;DHT22;4369;47.842;13.096;2023-04-25T01:14:10;8.20;99.90
8664;DHT22;4369;47.842;13.096;2023-04-25T01:16:37;8.10;99.90
8664;DHT22;4369;47.842;13.096;2023-04-25T01:19:06;8.10;99.90
8664;DHT22;4369;47.842;13.096;2023-04-25T01:21:37;8.20;99.90
8664;DHT22;4369;47.842;13.096;2023-04-25T01:24:05;8.20;99.90
8664;DHT22;4369;47.842;13.096;2023-04-25T01:26:32;8.20;99.90
8664;DHT22;4369;47.842;13.096;2023-04-25T01:29:00;8.20;99.90
8664;DHT22;4369;47.842;13.096;2023-04-25T01:31:28;8.30;99.90
8664;DHT22;4369;47.842;13.096;2023-04-25T01:33:55;8.20;99.90
8664;DHT22;4369;47.842;13.096;2023-04-25T01:36:22;8.10;99.90
8664;DHT22;4369;47.842;13.096;2023-04-25T01:38:50;8.10;99.90
8664;DHT22;4369;47.842;13.096;2023-04-25T01:41:18;8.00;99.90
8664;DHT22;4369;47.842;13.096;2023-04-25T01:43:45;8.10;99.90
8664;DHT22;4369;47.842;13.096;2023-04-25T01:46:12;8.10;99.90
8664;DHT22;4369;47.842;13.096;2023-04-25T01:48:39;8.10;99.90
8664;DHT22;4369;47.842;13.096;2023-04-25T01:51:06;8.00;99.90
8664;DHT22;4369;47.842;13.096;2023-04-25T01:53:33;8.00;99.90
8664;DHT22;4369;47.842;13.096;2023-04-25T01:56:02;8.10;99.90
8664;DHT22;4369;47.842;13.096;2023-04-25T01:58:29;8.10;99.90
8664;DHT22;4369;47.842;13.096;2023-04-25T02:00:55;8.10;99.90
8664;DHT22;4369;47.842;13.096;2023-04-25T02:03:22;8.10;99.90
8664;DHT22;4369;47.842;13.096;2023-04-25T02:05:49;8.10;99.90
8664;DHT22;4369;47.842;13.096;2023-04-25T02:08:17;8.10;99.90
8664;DHT22;4369;47.842;13.096;2023-04-25T02:10:44;8.00;99.90
8664;DHT22;4369;47.842;13.096;2023-04-25T02:13:12;8.00;99.90
8664;DHT22;4369;47.842;13.096;2023-04-25T02:15:39;8.00;99.90
8664;DHT22;4369;47.842;13.096;2023-04-25T02:18:06;8.10;99.90
8664;DHT22;4369;47.842;13.096;2023-04-25T02:20:34;8.10;99.90
8664;DHT22;4369;47.842;13.096;2023-04-25T02:23:01;8.00;99.90
8664;DHT22;4369;47.842;13.096;2023-04-25T02:25:29;8.00;99.90
8664;DHT22;4369;47.842;13.096;2023-04-25T02:27:55;8.00;99.90
8664;DHT22;4369;47.842;13.096;2023-04-25T02:30:24;8.10;99.90
8664;DHT22;4369;47.842;13.096;2023-04-25T02:32:51;8.10;99.90
8664;DHT22;4369;47.842;13.096;2023-04-25T02:35:18;8.10;99.90
8664;DHT22;4369;47.842;13.096;2023-04-25T02:37:45;8.10;99.90
8664;DHT22;4369;47.842;13.096;2023-04-25T02:40:12;8.00;99.90
8664;DHT22;4369;47.842;13.096;2023-04-25T02:42:39;8.10;99.90
8664;DHT22;4369;47.842;13.096;2023-04-25T02:45:06;8.00;99.90
8664;DHT22;4369;47.842;13.096;2023-04-25T02:47:35;8.00;99.90
8664;DHT22;4369;47.842;13.096;2023-04-25T02:50:02;8.00;99.90
8664;DHT22;4369;47.842;13.096;2023-04-25T02:52:29;8.00;99.90
8664;DHT22;4369;47.842;13.096;2023-04-25T02:54:56;8.00;99.90
8664;DHT22;4369;47.842;13.096;2023-04-25T02:57:23;7.90;99.90
8664;DHT22;4369;47.842;13.096;2023-04-25T02:59:50;7.90;99.90
8664;DHT22;4369;47.842;13.096;2023-04-25T03:02:17;7.90;99.90
8664;DHT22;4369;47.842;13.096;2023-04-25T03:04:45;7.90;99.90
8664;DHT22;4369;47.842;13.096;2023-04-25T03:07:13;7.90;99.90
8664;DHT22;4369;47.842;13.096;2023-04-25T03:09:40;7.90;99.90
8664;DHT22;4369;47.842;13.096;2023-04-25T03:12:07;7.90;99.90
8664;DHT22;4369;47.842;13.096;2023-04-25T03:14:34;7.90;99.90
8664;DHT22;4369;47.842;13.096;2023-04-25T03:17:01;8.00;99.90
8664;DHT22;4369;47.842;13.096;2023-04-25T03:19:28;7.90;99.90
8664;DHT22;4369;47.842;13.096;2023-04-25T03:21:56;7.90;99.90
8664;DHT22;4369;47.842;13.096;2023-04-25T03:24:23;7.80;99.90
8664;DHT22;4369;47.842;13.096;2023-04-25T03:26:50;7.80;99.90
8664;DHT22;4369;47.842;13.096;2023-04-25T03:29:17;7.80;99.90
8664;DHT22;4369;47.842;13.096;2023-04-25T03:31:44;7.80;99.90
8664;DHT22;4369;47.842;13.096;2023-04-25T03:34:11;7.70;99.90
8664;DHT22;4369;47.842;13.096;2023-04-25T03:36:39;7.80;99.90
8664;DHT22;4369;47.842;13.096;2023-04-25T03:39:07;7.70;99.90
8664;DHT22;4369;47.842;13.096;2023-04-25T03:41:34;7.70;99.90
8664;DHT22;4369;47.842;13.096;2023-04-25T03:44:01;7.80;99.90
8664;DHT22;4369;47.842;13.096;2023-04-25T03:46:28;7.80;99.90
8664;DHT22;4369;47.842;13.096;2023-04-25T03:48:55;7.80;99.90
8664;DHT22;4369;47.842;13.096;2023-04-25T03:51:22;7.90;99.90
8664;DHT22;4369;47.842;13.096;2023-04-25T03:53:49;7.90;99.90
8664;DHT22;4369;47.842;13.096;2023-04-25T03:56:17;7.90;99.90
8664;DHT22;4369;47.842;13.096;2023-04-25T03:58:44;7.90;99.90
8664;DHT22;4369;47.842;13.096;2023-04-25T04:01:11;8.00;99.90
8664;DHT22;4369;47.842;13.096;2023-04-25T04:03:38;7.90;99.90
8664;DHT22;4369;47.842;13.096;2023-04-25T04:06:06;7.90;99.90
8664;DHT22;4369;47.842;13.096;2023-04-25T04:08:33;7.90;99.90
8664;DHT22;4369;47.842;13.096;2023-04-25T04:11:00;7.90;99.90
8664;DHT22;4369;47.842;13.096;2023-04-25T04:13:29;7.90;99.90
8664;DHT22;4369;47.842;13.096;2023-04-25T04:15:56;7.90;99.90
8664;DHT22;4369;47.842;13.096;2023-04-25T04:18:23;8.00;99.90
8664;DHT22;4369;47.842;13.096;2023-04-25T04:20:50;8.00;99.90
8664;DHT22;4369;47.842;13.096;2023-04-25T04:23:17;8.00;99.90
8664;DHT22;4369;47.842;13.096;2023-04-25T04:25:44;8.00;99.90
8664;DHT22;4369;47.842;13.096;2023-04-25T04:28:11;8.00;99.90
8664;DHT22;4369;47.842;13.096;2023-04-25T04:30:40;8.00;99.90
8664;DHT22;4369;47.842;13.096;2023-04-25T04:33:08;7.90;99.90
8664;DHT22;4369;47.842;13.096;2023-04-25T04:35:35;7.80;99.90
8664;DHT22;4369;47.842;13.096;2023-04-25T04:38:01;7.80;99.90
8664;DHT22;4369;47.842;13.096;2023-04-25T04:40:28;7.90;99.90
8664;DHT22;4369;47.842;13.096;2023-04-25T04:42:56;8.00;99.90
8664;DHT22;4369;47.842;13.096;2023-04-25T04:45:24;8.10;99.90
8664;DHT22;4369;47.842;13.096;2023-04-25T04:47:52;8.20;99.90
8664;DHT22;4369;47.842;13.096;2023-04-25T04:50:20;8.30;99.90
8664;DHT22;4369;47.842;13.096;2023-04-25T04:52:48;8.30;99.90
8664;DHT22;4369;47.842;13.096;2023-04-25T04:55:15;8.40;99.90
8664;DHT22;4369;47.842;13.096;2023-04-25T04:57:42;8.40;99.90
8664;DHT22;4369;47.842;13.096;2023-04-25T05:00:10;8.40;99.90
8664;DHT22;4369;47.842;13.096;2023-04-25T05:02:38;8.40;99.90
8664;DHT22;4369;47.842;13.096;2023-04-25T05:05:07;8.40;99.90
8664;DHT22;4369;47.842;13.096;2023-04-25T05:07:34;8.50;99.90
8664;DHT22;4369;47.842;13.096;2023-04-25T05:10:01;8.50;99.90
8664;DHT22;4369;47.842;13.096;2023-04-25T05:12:28;8.50;99.90
8664;DHT22;4369;47.842;13.096;2023-04-25T05:14:55;8.50;99.90
8664;DHT22;4369;47.842;13.096;2023-04-25T05:17:22;8.40;99.90
8664;DHT22;4369;47.842;13.096;2023-04-25T05:19:49;8.50;99.90
8664;DHT22;4369;47.842;13.096;2023-04-25T05:22:18;8.50;99.90
8664;DHT22;4369;47.842;13.096;2023-04-25T05:24:45;8.50;99.90
8664;DHT22;4369;47.842;13.096;2023-04-25T05:27:12;8.50;99.90
8664;DHT22;4369;47.842;13.096;2023-04-25T05:29:38;8.50;99.90
8664;DHT22;4369;47.842;13.096;2023-04-25T05:32:05;8.50;99.90
8664;DHT22;4369;47.842;13.096;2023-04-25T05:34:33;8.50;99.90
8664;DHT22;4369;47.842;13.096;2023-04-25T05:37:00;8.40;99.90
8664;DHT22;4369;47.842;13.096;2023-04-25T05:39:28;8.40;99.90
8664;DHT22;4369;47.842;13.096;2023-04-25T05:41:55;8.10;99.90
8664;DHT22;4369;47.842;13.096;2023-04-25T05:44:22;8.00;99.90
8664;DHT22;4369;47.842;13.096;2023-04-25T05:46:49;8.10;99.90
8664;DHT22;4369;47.842;13.096;2023-04-25T05:49:16;8.10;99.90
8664;DHT22;4369;47.842;13.096;2023-04-25T05:51:42;8.30;99.90
8664;DHT22;4369;47.842;13.096;2023-04-25T05:54:09;8.30;99.90
8664;DHT22;4369;47.842;13.096;2023-04-25T05:56:38;8.20;99.90
8664;DHT22;4369;47.842;13.096;2023-04-25T05:59:04;8.20;99.90
8664;DHT22;4369;47.842;13.096;2023-04-25T06:01:31;8.20;99.90
8664;DHT22;4369;47.842;13.096;2023-04-25T06:03:58;8.10;99.90
8664;DHT22;4369;47.842;13.096;2023-04-25T06:06:25;8.00;99.90
8664;DHT22;4369;47.842;13.096;2023-04-25T06:08:52;8.10;99.90
8664;DHT22;4369;47.842;13.096;2023-04-25T06:11:19;8.00;99.90
8664;DHT22;4369;47.842;13.096;2023-04-25T06:13:47;8.00;99.90
8664;DHT22;4369;47.842;13.096;2023-04-25T06:16:14;8.00;99.90
8664;DHT22;4369;47.842;13.096;2023-04-25T06:18:41;8.10;99.90
8664;DHT22;4369;47.842;13.096;2023-04-25T06:21:08;8.20;99.90
8664;DHT22;4369;47.842;13.096;2023-04-25T06:23:35;8.30;99.90
8664;DHT22;4369;47.842;13.096;2023-04-25T06:26:02;8.40;99.90
8664;DHT22;4369;47.842;13.096;2023-04-25T06:28:28;8.40;99.90
8664;DHT22;4369;47.842;13.096;2023-04-25T06:30:57;8.50;99.90
8664;DHT22;4369;47.842;13.096;2023-04-25T06:33:23;8.60;99.90
8664;DHT22;4369;47.842;13.096;2023-04-25T06:35:50;8.70;99.90
8664;DHT22;4369;47.842;13.096;2023-04-25T06:38:17;8.70;99.90
8664;DHT22;4369;47.842;13.096;2023-04-25T06:40:44;8.50;99.90
8664;DHT22;4369;47.842;13.096;2023-04-25T06:43:11;8.50;99.90
8664;DHT22;4369;47.842;13.096;2023-04-25T06:45:38;8.30;99.90
8664;DHT22;4369;47.842;13.096;2023-04-25T06:48:06;8.20;99.90
8664;DHT22;4369;47.842;13.096;2023-04-25T06:50:33;8.30;99.90
8664;DHT22;4369;47.842;13.096;2023-04-25T06:53:00;8.30;99.90
8664;DHT22;4369;47.842;13.096;2023-04-25T06:55:28;8.20;99.90
8664;DHT22;4369;47.842;13.096;2023-04-25T06:57:55;8.10;99.90
8664;DHT22;4369;47.842;13.096;2023-04-25T07:00:21;8.00;99.90
8664;DHT22;4369;47.842;13.096;2023-04-25T07:02:48;8.00;99.90
8664;DHT22;4369;47.842;13.096;2023-04-25T07:05:17;7.90;99.90
8664;DHT22;4369;47.842;13.096;2023-04-25T07:07:44;7.80;99.90
8664;DHT22;4369;47.842;13.096;2023-04-25T07:10:10;7.90;99.90
8664;DHT22;4369;47.842;13.096;2023-04-25T07:12:37;7.90;99.90
8664;DHT22;4369;47.842;13.096;2023-04-25T07:15:05;8.10;99.90
8664;DHT22;4369;47.842;13.096;2023-04-25T07:17:35;8.30;99.90
8664;DHT22;4369;47.842;13.096;2023-04-25T07:20:02;8.40;99.90
8664;DHT22;4369;47.842;13.096;2023-04-25T07:22:32;8.60;99.90
8664;DHT22;4369;47.842;13.096;2023-04-25T07:24:59;8.80;99.90
8664;DHT22;4369;47.842;13.096;2023-04-25T07:27:26;9.10;99.90
8664;DHT22;4369;47.842;13.096;2023-04-25T07:29:53;9.40;99.90
8664;DHT22;4369;47.842;13.096;2023-04-25T07:32:20;9.50;99.90
8664;DHT22;4369;47.842;13.096;2023-04-25T07:34:47;9.50;99.90
8664;DHT22;4369;47.842;13.096;2023-04-25T07:37:14;9.40;99.90
8664;DHT22;4369;47.842;13.096;2023-04-25T07:39:42;9.40;99.90
8664;DHT22;4369;47.842;13.096;2023-04-25T07:42:09;9.50;99.90
8664;DHT22;4369;47.842;13.096;2023-04-25T07:44:36;9.40;99.90
8664;DHT22;4369;47.842;13.096;2023-04-25T07:47:04;9.20;99.90
8664;DHT22;4369;47.842;13.096;2023-04-25T07:49:32;9.20;99.90
8664;DHT22;4369;47.842;13.096;2023-04-25T07:52:00;9.20;99.90
8664;DHT22;4369;47.842;13.096;2023-04-25T07:54:27;9.10;99.90
8664;DHT22;4369;47.842;13.096;2023-04-25T07:56:55;9.20;99.90
8664;DHT22;4369;47.842;13.096;2023-04-25T07:59:22;9.30;99.90
8664;DHT22;4369;47.842;13.096;2023-04-25T08:01:49;9.50;99.90
8664;DHT22;4369;47.842;13.096;2023-04-25T08:04:16;9.50;99.90
8664;DHT22;4369;47.842;13.096;2023-04-25T08:06:43;9.50;99.90
8664;DHT22;4369;47.842;13.096;2023-04-25T08:09:11;9.50;99.90
8664;DHT22;4369;47.842;13.096;2023-04-25T08:11:38;9.60;99.90
8664;DHT22;4369;47.842;13.096;2023-04-25T08:14:07;9.90;99.90
8664;DHT22;4369;47.842;13.096;2023-04-25T08:16:34;10.00;99.90
8664;DHT22;4369;47.842;13.096;2023-04-25T08:19:02;10.10;99.90
8664;DHT22;4369;47.842;13.096;2023-04-25T08:21:29;10.30;99.90
8664;DHT22;4369;47.842;13.096;2023-04-25T08:23:56;10.50;99.90
8664;DHT22;4369;47.842;13.096;2023-04-25T08:26:23;10.50;99.90
8664;DHT22;4369;47.842;13.096;2023-04-25T08:28:50;10.60;99.90
8664;DHT22;4369;47.842;13.096;2023-04-25T08:31:19;10.80;99.90
8664;DHT22;4369;47.842;13.096;2023-04-25T08:33:46;11.00;99.90
8664;DHT22;4369;47.842;13.096;2023-04-25T08:36:13;10.90;99.90
8664;DHT22;4369;47.842;13.096;2023-04-25T08:38:40;11.00;99.90
8664;DHT22;4369;47.842;13.096;2023-04-25T08:41:07;11.20;99.90
8664;DHT22;4369;47.842;13.096;2023-04-25T08:43:34;11.20;99.90
8664;DHT22;4369;47.842;13.096;2023-04-25T08:46:01;11.30;99.90
8664;DHT22;4369;47.842;13.096;2023-04-25T08:48:32;11.40;99.90
8664;DHT22;4369;47.842;13.096;2023-04-25T08:51:01;11.30;99.90
8664;DHT22;4369;47.842;13.096;2023-04-25T08:53:31;11.30;99.90
8664;DHT22;4369;47.842;13.096;2023-04-25T08:55:59;11.40;99.90
8664;DHT22;4369;47.842;13.096;2023-04-25T08:58:27;11.60;99.90
8664;DHT22;4369;47.842;13.096;2023-04-25T09:00:55;11.60;99.90
8664;DHT22;4369;47.842;13.096;2023-04-25T09:03:21;11.50;99.90
8664;DHT22;4369;47.842;13.096;2023-04-25T09:05:51;11.50;99.90
8664;DHT22;4369;47.842;13.096;2023-04-25T09:08:18;11.70;99.90
8664;DHT22;4369;47.842;13.096;2023-04-25T09:10:45;11.70;99.90
8664;DHT22;4369;47.842;13.096;2023-04-25T09:13:13;11.80;99.90
8664;DHT22;4369;47.842;13.096;2023-04-25T09:15:49;11.80;99.90
8664;DHT22;4369;47.842;13.096;2023-04-25T09:18:22;11.50;98.00
8664;DHT22;4369;47.842;13.096;2023-04-25T09:20:52;11.40;99.90
8664;DHT22;4369;47.842;13.096;2023-04-25T09:23:20;11.30;99.90
8664;DHT22;4369;47.842;13.096;2023-04-25T09:25:48;10.90;99.50
8664;DHT22;4369;47.842;13.096;2023-04-25T09:28:15;11.00;99.90
8664;DHT22;4369;47.842;13.096;2023-04-25T09:30:42;11.10;99.90
8664;DHT22;4369;47.842;13.096;2023-04-25T09:33:10;11.10;99.90
8664;DHT22;4369;47.842;13.096;2023-04-25T09:35:39;11.30;99.90
8664;DHT22;4369;47.842;13.096;2023-04-25T09:38:13;11.70;99.90
8664;DHT22;4369;47.842;13.096;2023-04-25T09:40:40;12.00;99.90
8664;DHT22;4369;47.842;13.096;2023-04-25T09:43:13;12.30;99.90
8664;DHT22;4369;47.842;13.096;2023-04-25T09:45:44;12.40;99.90
8664;DHT22;4369;47.842;13.096;2023-04-25T09:48:17;12.60;99.90
8664;DHT22;4369;47.842;13.096;2023-04-25T09:50:45;12.70;99.90
8664;DHT22;4369;47.842;13.096;2023-04-25T09:53:13;12.70;99.90
8664;DHT22;4369;47.842;13.096;2023-04-25T09:55:41;12.70;99.90
8664;DHT22;4369;47.842;13.096;2023-04-25T09:58:10;12.80;99.90
8664;DHT22;4369;47.842;13.096;2023-04-25T10:00:38;12.90;99.90
8664;DHT22;4369;47.842;13.096;2023-04-25T10:03:06;13.00;99.90
8664;DHT22;4369;47.842;13.096;2023-04-25T10:05:34;13.00;99.90
8664;DHT22;4369;47.842;13.096;2023-04-25T10:08:03;13.00;99.90
8664;DHT22;4369;47.842;13.096;2023-04-25T10:10:33;13.10;99.90
8664;DHT22;4369;47.842;13.096;2023-04-25T10:13:03;12.90;99.90
8664;DHT22;4369;47.842;13.096;2023-04-25T10:15:33;13.10;99.90
8664;DHT22;4369;47.842;13.096;2023-04-25T10:18:01;13.30;99.90
8664;DHT22;4369;47.842;13.096;2023-04-25T10:20:29;13.80;99.00
8664;DHT22;4369;47.842;13.096;2023-04-25T10:23:03;13.70;98.60
8664;DHT22;4369;47.842;13.096;2023-04-25T10:25:34;13.30;99.90
8664;DHT22;4369;47.842;13.096;2023-04-25T10:28:03;13.30;99.90
8664;DHT22;4369;47.842;13.096;2023-04-25T10:30:30;13.10;99.90
8664;DHT22;4369;47.842;13.096;2023-04-25T10:32:58;13.10;99.90
8664;DHT22;4369;47.842;13.096;2023-04-25T10:35:27;13.20;99.90
8664;DHT22;4369;47.842;13.096;2023-04-25T10:37:58;13.60;99.20
8664;DHT22;4369;47.842;13.096;2023-04-25T10:40:26;14.50;99.90
8664;DHT22;4369;47.842;13.096;2023-04-25T10:42:54;15.10;99.50
8664;DHT22;4369;47.842;13.096;2023-04-25T10:45:22;15.20;96.60
8664;DHT22;4369;47.842;13.096;2023-04-25T10:47:49;15.20;94.60
8664;DHT22;4369;47.842;13.096;2023-04-25T10:50:16;15.10;93.60
8664;DHT22;4369;47.842;13.096;2023-04-25T10:52:43;15.10;94.20
8664;DHT22;4369;47.842;13.096;2023-04-25T10:55:10;14.70;93.90
8664;DHT22;4369;47.842;13.096;2023-04-25T10:57:39;14.50;93.60
8664;DHT22;4369;47.842;13.096;2023-04-25T11:00:13;14.30;93.50
8664;DHT22;4369;47.842;13.096;2023-04-25T11:02:43;14.40;94.00
8664;DHT22;4369;47.842;13.096;2023-04-25T11:05:11;14.30;95.20
8664;DHT22;4369;47.842;13.096;2023-04-25T11:07:49;14.30;94.00
8664;DHT22;4369;47.842;13.096;2023-04-25T11:10:17;14.00;92.50
8664;DHT22;4369;47.842;13.096;2023-04-25T11:12:45;14.10;93.70
8664;DHT22;4369;47.842;13.096;2023-04-25T11:15:13;14.10;92.90
8664;DHT22;4369;47.842;13.096;2023-04-25T11:17:40;14.60;94.60
8664;DHT22;4369;47.842;13.096;2023-04-25T11:20:07;14.70;91.70
8664;DHT22;4369;47.842;13.096;2023-04-25T11:22:38;14.20;92.70
8664;DHT22;4369;47.842;13.096;2023-04-25T11:25:06;14.00;92.10
8664;DHT22;4369;47.842;13.096;2023-04-25T11:27:34;14.10;92.00
8664;DHT22;4369;47.842;13.096;2023-04-25T11:30:13;13.90;91.40
8664;DHT22;4369;47.842;13.096;2023-04-25T11:32:41;13.60;92.90
8664;DHT22;4369;47.842;13.096;2023-04-25T11:35:08;13.00;98.60
8664;DHT22;4369;47.842;13.096;2023-04-25T11:37:36;11.70;99.90
8664;DHT22;4369;47.842;13.096;2023-04-25T11:40:04;10.80;99.90
8664;DHT22;4369;47.842;13.096;2023-04-25T11:42:32;10.70;99.90
8664;DHT22;4369;47.842;13.096;2023-04-25T11:44:59;10.40;99.90
8664;DHT22;4369;47.842;13.096;2023-04-25T11:47:30;10.40;99.90
8664;DHT22;4369;47.842;13.096;2023-04-25T11:49:58;10.40;99.90
8664;DHT22;4369;47.842;13.096;2023-04-25T11:52:36;10.30;99.90
8664;DHT22;4369;47.842;13.096;2023-04-25T11:55:05;10.30;99.90
8664;DHT22;4369;47.842;13.096;2023-04-25T11:57:32;10.40;99.90
8664;DHT22;4369;47.842;13.096;2023-04-25T12:00:06;10.10;99.90
8664;DHT22;4369;47.842;13.096;2023-04-25T12:02:36;10.20;99.90
8664;DHT22;4369;47.842;13.096;2023-04-25T12:05:06;10.40;99.90
8664;DHT22;4369;47.842;13.096;2023-04-25T12:07:34;10.90;99.90
8664;DHT22;4369;47.842;13.096;2023-04-25T12:10:05;11.70;99.90
8664;DHT22;4369;47.842;13.096;2023-04-25T12:12:33;12.80;99.90
8664;DHT22;4369;47.842;13.096;2023-04-25T12:15:09;13.30;99.90
8664;DHT22;4369;47.842;13.096;2023-04-25T12:17:38;14.10;99.90
8664;DHT22;4369;47.842;13.096;2023-04-25T12:20:10;14.70;99.90
8664;DHT22;4369;47.842;13.096;2023-04-25T12:22:37;14.50;98.30
8664;DHT22;4369;47.842;13.096;2023-04-25T12:25:05;14.60;98.30
8664;DHT22;4369;47.842;13.096;2023-04-25T12:27:33;14.90;96.60
8664;DHT22;4369;47.842;13.096;2023-04-25T12:30:01;14.70;92.30
8664;DHT22;4369;47.842;13.096;2023-04-25T12:32:28;14.80;93.80
8664;DHT22;4369;47.842;13.096;2023-04-25T12:34:57;14.30;92.40
8664;DHT22;4369;47.842;13.096;2023-04-25T12:37:23;14.40;95.80
8664;DHT22;4369;47.842;13.096;2023-04-25T12:39:50;14.60;96.00
8664;DHT22;4369;47.842;13.096;2023-04-25T12:42:17;14.20;94.80
8664;DHT22;4369;47.842;13.096;2023-04-25T12:44:44;14.10;95.30
8664;DHT22;4369;47.842;13.096;2023-04-25T12:47:12;14.00;96.40
8664;DHT22;4369;47.842;13.096;2023-04-25T12:49:38;13.40;95.10
8664;DHT22;4369;47.842;13.096;2023-04-25T12:52:07;13.30;99.40
8664;DHT22;4369;47.842;13.096;2023-04-25T12:54:34;13.00;99.90
8664;DHT22;4369;47.842;13.096;2023-04-25T12:57:01;13.00;99.90
8664;DHT22;4369;47.842;13.096;2023-04-25T12:59:28;13.30;99.90
8664;DHT22;4369;47.842;13.096;2023-04-25T13:01:58;13.90;99.90
8664;DHT22;4369;47.842;13.096;2023-04-25T13:04:25;14.40;99.90
8664;DHT22;4369;47.842;13.096;2023-04-25T13:06:52;14.80;99.90
8664;DHT22;4369;47.842;13.096;2023-04-25T13:09:20;16.30;99.90
8664;DHT22;4369;47.842;13.096;2023-04-25T13:11:47;19.00;99.90
8664;DHT22;4369;47.842;13.096;2023-04-25T13:14:14;19.70;96.60
8664;DHT22;4369;47.842;13.096;2023-04-25T13:16:41;20.20;94.30
8664;DHT22;4369;47.842;13.096;2023-04-25T13:19:08;21.10;90.30
8664;DHT22;4369;47.842;13.096;2023-04-25T13:21:37;20.50;86.50
8664;DHT22;4369;47.842;13.096;2023-04-25T13:24:04;19.10;91.10
8664;DHT22;4369;47.842;13.096;2023-04-25T13:26:32;18.00;90.10
8664;DHT22;4369;47.842;13.096;2023-04-25T13:28:59;16.20;93.40
8664;DHT22;4369;47.842;13.096;2023-04-25T13:31:29;14.10;97.30
8664;DHT22;4369;47.842;13.096;2023-04-25T13:33:55;12.90;99.90
8664;DHT22;4369;47.842;13.096;2023-04-25T13:36:22;11.50;99.90
8664;DHT22;4369;47.842;13.096;2023-04-25T13:38:49;10.70;99.90
8664;DHT22;4369;47.842;13.096;2023-04-25T13:41:16;10.00;99.90
8664;DHT22;4369;47.842;13.096;2023-04-25T13:43:46;9.50;99.90
8664;DHT22;4369;47.842;13.096;2023-04-25T13:46:14;8.90;99.90
8664;DHT22;4369;47.842;13.096;2023-04-25T13:48:41;8.60;99.90
8664;DHT22;4369;47.842;13.096;2023-04-25T13:51:13;8.50;99.90
8664;DHT22;4369;47.842;13.096;2023-04-25T13:53:40;8.30;99.90
8664;DHT22;4369;47.842;13.096;2023-04-25T13:56:07;8.10;99.90
8664;DHT22;4369;47.842;13.096;2023-04-25T13:58:34;8.20;99.90
8664;DHT22;4369;47.842;13.096;2023-04-25T14:01:02;8.30;99.90
8664;DHT22;4369;47.842;13.096;2023-04-25T14:03:30;8.20;99.90
8664;DHT22;4369;47.842;13.096;2023-04-25T14:05:57;8.10;16.50
8664;DHT22;4369;47.842;13.096;2023-04-25T14:08:24;8.10;32.60
8664;DHT22;4369;47.842;13.096;2023-04-25T14:10:51;8.20;70.50
8664;DHT22;4369;47.842;13.096;2023-04-25T14:13:18;8.20;75.80
8664;DHT22;4369;47.842;13.096;2023-04-25T14:15:44;8.40;89.00
8664;DHT22;4369;47.842;13.096;2023-04-25T14:18:13;8.60;94.00
8664;DHT22;4369;47.842;13.096;2023-04-25T14:20:41;8.60;97.50
8664;DHT22;4369;47.842;13.096;2023-04-25T14:23:07;8.60;99.90
8664;DHT22;4369;47.842;13.096;2023-04-25T14:25:34;8.80;99.90
8664;DHT22;4369;47.842;13.096;2023-04-25T14:28:02;8.90;99.90
8664;DHT22;4369;47.842;13.096;2023-04-25T14:30:29;8.90;99.90
8664;DHT22;4369;47.842;13.096;2023-04-25T14:32:56;9.10;99.70
8664;DHT22;4369;47.842;13.096;2023-04-25T14:35:24;9.20;98.80
8664;DHT22;4369;47.842;13.096;2023-04-25T14:37:51;9.20;63.30
8664;DHT22;4369;47.842;13.096;2023-04-25T14:40:19;9.30;61.10
8664;DHT22;4369;47.842;13.096;2023-04-25T14:42:48;9.40;55.60
8664;DHT22;4369;47.842;13.096;2023-04-25T14:45:15;9.40;46.20
8664;DHT22;4369;47.842;13.096;2023-04-25T14:47:42;9.40;45.00
8664;DHT22;4369;47.842;13.096;2023-04-25T14:50:10;9.30;32.80
8664;DHT22;4369;47.842;13.096;2023-04-25T14:52:38;9.70;28.40
8664;DHT22;4369;47.842;13.096;2023-04-25T14:55:05;10.80;33.00
8664;DHT22;4369;47.842;13.096;2023-04-25T14:57:33;11.50;1.00
8664;DHT22;4369;47.842;13.096;2023-04-25T15:00:00;11.30;1.00
8664;DHT22;4369;47.842;13.096;2023-04-25T15:02:27;11.00;1.00
8664;DHT22;4369;47.842;13.096;2023-04-25T15:04:54;10.70;1.00
8664;DHT22;4369;47.842;13.096;2023-04-25T15:07:22;10.60;1.00
8664;DHT22;4369;47.842;13.096;2023-04-25T15:09:52;10.30;1.00
8664;DHT22;4369;47.842;13.096;2023-04-25T15:12:21;9.90;1.00
8664;DHT22;4369;47.842;13.096;2023-04-25T15:14:48;9.70;1.00
8664;DHT22;4369;47.842;13.096;2023-04-25T15:17:15;9.60;1.00
8664;DHT22;4369;47.842;13.096;2023-04-25T15:19:42;9.40;29.60
8664;DHT22;4369;47.842;13.096;2023-04-25T15:22:09;9.10;76.00
8664;DHT22;4369;47.842;13.096;2023-04-25T15:24:36;8.90;99.90
8664;DHT22;4369;47.842;13.096;2023-04-25T15:27:04;8.50;99.90
8664;DHT22;4369;47.842;13.096;2023-04-25T15:29:31;8.30;99.90
8664;DHT22;4369;47.842;13.096;2023-04-25T15:31:58;8.10;99.90
8664;DHT22;4369;47.842;13.096;2023-04-25T15:34:25;8.10;99.90
8664;DHT22;4369;47.842;13.096;2023-04-25T15:36:52;8.20;99.90
8664;DHT22;4369;47.842;13.096;2023-04-25T15:39:19;8.30;99.90
8664;DHT22;4369;47.842;13.096;2023-04-25T15:41:46;8.40;99.90
8664;DHT22;4369;47.842;13.096;2023-04-25T15:44:14;8.50;99.90
8664;DHT22;4369;47.842;13.096;2023-04-25T15:46:41;8.60;99.90
8664;DHT22;4369;47.842;13.096;2023-04-25T15:49:08;8.80;99.90
8664;DHT22;4369;47.842;13.096;2023-04-25T15:51:35;8.90;99.90
8664;DHT22;4369;47.842;13.096;2023-04-25T15:54:02;8.90;99.90
8664;DHT22;4369;47.842;13.096;2023-04-25T15:56:30;9.00;99.90
8664;DHT22;4369;47.842;13.096;2023-04-25T15:58:57;8.90;99.90